Time;durP1;ratioP1;P1;durP2;ratioP2;P2;SDS_P1;SDS_P2;PMS_P1;PMS_P2;Temp;Humidity;BMP_temperature;BMP_pressure;BME280_temperature;BME280_humidity;BME280_pressure;Samples;Min_cycle;Max_cycle;Signal;HPM_P1;HPM_P2
2023/08/06 00:00:08;;;;;;;12.10;7.27;;;;;;;;;;5048496;28;20093;-66
2023/08/06 00:02:34;;;;;;;10.73;7.63;;;;;;;;;;5071320;28;20016;-67
2023/08/06 00:04:59;;;;;;;12.17;7.40;;;;;;;;;;5071976;28;20055;-66
2023/08/06 00:07:24;;;;;;;12.33;7.73;;;;;;;;;;5072177;28;20032;-67
2023/08/06 00:09:49;;;;;;;11.30;7.57;;;;;;;;;;5071087;28;20028;-66
2023/08/06 00:12:14;;;;;;;12.00;8.03;;;;;;;;;;5071679;28;20021;-67
2023/08/06 00:14:40;;;;;;;12.20;8.00;;;;;;;;;;5070967;28;20024;-67
2023/08/06 00:17:05;;;;;;;13.53;7.87;;;;;;;;;;5071668;28;20020;-66
2023/08/06 00:19:31;;;;;;;11.83;7.50;;;;;;;;;;5070316;28;20028;-67
2023/08/06 00:21:56;;;;;;;14.48;8.10;;;;;;;;;;5071360;28;20365;-67
2023/08/06 00:24:21;;;;;;;13.63;7.50;;;;;;;;;;5071383;28;20031;-66
2023/08/06 00:26:46;;;;;;;11.30;7.57;;;;;;;;;;5071184;28;20020;-66
2023/08/06 00:29:12;;;;;;;12.20;7.55;;;;;;;;;;5070538;28;20476;-66
2023/08/06 00:31:37;;;;;;;10.93;7.18;;;;;;;;;;5070317;28;20032;-68
2023/08/06 00:34:02;;;;;;;10.70;7.07;;;;;;;;;;5071380;28;20074;-66
2023/08/06 00:36:27;;;;;;;10.67;7.40;;;;;;;;;;5071030;28;20017;-70
2023/08/06 00:38:53;;;;;;;13.47;7.23;;;;;;;;;;5070256;28;20481;-71
2023/08/06 00:41:18;;;;;;;10.87;7.17;;;;;;;;;;5071323;28;20464;-71
2023/08/06 00:43:44;;;;;;;13.23;7.40;;;;;;;;;;5070955;28;20024;-71
2023/08/06 00:46:09;;;;;;;11.87;7.63;;;;;;;;;;5070934;28;20090;-71
2023/08/06 00:48:34;;;;;;;14.17;8.10;;;;;;;;;;5069526;28;20028;-70
2023/08/06 00:51:01;;;;;;;10.10;6.43;;;;;;;;;;5070509;28;20028;-70
2023/08/06 00:53:26;;;;;;;12.30;7.22;;;;;;;;;;5071283;28;20418;-71
2023/08/06 00:55:51;;;;;;;11.57;6.97;;;;;;;;;;5069700;28;20021;-71
2023/08/06 00:58:17;;;;;;;12.83;7.40;;;;;;;;;;5071183;28;20021;-71
2023/08/06 01:03:45;;;;;;;13.07;7.05;;;;;;;;;;5067369;28;20067;-70
2023/08/06 01:06:10;;;;;;;10.33;7.30;;;;;;;;;;5070656;28;20024;-70
2023/08/06 01:08:44;;;;;;;10.63;7.47;;;;;;;;;;5071331;28;20461;-70
2023/08/06 01:11:26;;;;;;;12.07;6.80;;;;;;;;;;5070346;28;20143;-70
2023/08/06 01:13:57;;;;;;;13.83;7.90;;;;;;;;;;5072692;28;20028;-70
2023/08/06 01:16:23;;;;;;;13.45;8.45;;;;;;;;;;5067815;28;20020;-70
2023/08/06 01:18:49;;;;;;;11.37;8.40;;;;;;;;;;5076659;28;20024;-70
2023/08/06 01:21:15;;;;;;;11.40;8.70;;;;;;;;;;5075086;28;20144;-70
2023/08/06 01:23:40;;;;;;;15.67;9.43;;;;;;;;;;5078698;28;20035;-70
2023/08/06 01:26:12;;;;;;;12.07;8.67;;;;;;;;;;5074454;28;20024;-70
2023/08/06 01:28:37;;;;;;;13.13;9.13;;;;;;;;;;5073592;28;20103;-70
2023/08/06 01:31:04;;;;;;;13.63;9.87;;;;;;;;;;5073262;28;20155;-70
2023/08/06 01:33:32;;;;;;;14.13;9.77;;;;;;;;;;5073581;28;20495;-70
2023/08/06 01:35:57;;;;;;;13.30;8.57;;;;;;;;;;5073791;28;20466;-70
2023/08/06 01:38:22;;;;;;;15.20;8.67;;;;;;;;;;5074438;28;20099;-70
2023/08/06 01:40:48;;;;;;;13.13;9.40;;;;;;;;;;5074564;28;20025;-70
2023/08/06 01:43:13;;;;;;;15.00;11.00;;;;;;;;;;5073039;28;20062;-70
2023/08/06 01:45:38;;;;;;;16.23;11.97;;;;;;;;;;5073638;28;20020;-70
2023/08/06 01:48:03;;;;;;;17.30;11.88;;;;;;;;;;5073050;28;20021;-70
2023/08/06 01:50:28;;;;;;;16.52;12.50;;;;;;;;;;5073868;28;20020;-70
2023/08/06 01:52:54;;;;;;;17.05;12.57;;;;;;;;;;5074404;28;20012;-70
2023/08/06 01:55:19;;;;;;;16.60;12.70;;;;;;;;;;5073451;28;20503;-70
2023/08/06 01:57:44;;;;;;;18.87;13.77;;;;;;;;;;5074536;28;20032;-70
2023/08/06 02:00:10;;;;;;;18.07;13.10;;;;;;;;;;5073176;28;20020;-70
2023/08/06 02:02:35;;;;;;;17.95;12.27;;;;;;;;;;5072148;28;20021;-70
2023/08/06 02:05:00;;;;;;;17.58;12.25;;;;;;;;;;5073617;28;20049;-71
2023/08/06 02:07:26;;;;;;;15.80;11.90;;;;;;;;;;5072379;28;20040;-70
2023/08/06 02:09:51;;;;;;;13.63;10.90;;;;;;;;;;5073961;28;20020;-70
2023/08/06 02:12:16;;;;;;;16.33;12.07;;;;;;;;;;5072920;28;20025;-70
2023/08/06 02:14:41;;;;;;;17.70;12.93;;;;;;;;;;5072988;28;20388;-70
2023/08/06 02:17:07;;;;;;;15.98;11.93;;;;;;;;;;5073957;28;20388;-67
2023/08/06 02:19:32;;;;;;;16.93;12.47;;;;;;;;;;5072655;28;20476;-66
2023/08/06 02:21:57;;;;;;;16.45;11.90;;;;;;;;;;5072996;28;20020;-66
2023/08/06 02:24:22;;;;;;;22.67;12.27;;;;;;;;;;5073263;28;20019;-65
2023/08/06 02:26:50;;;;;;;17.97;12.90;;;;;;;;;;5071903;28;21730;-66
2023/08/06 02:29:16;;;;;;;17.50;12.50;;;;;;;;;;5073641;28;20406;-66
2023/08/06 02:31:41;;;;;;;16.23;11.70;;;;;;;;;;5071695;28;20017;-66
2023/08/06 02:34:06;;;;;;;17.37;12.60;;;;;;;;;;5073076;28;20350;-66
2023/08/06 02:36:32;;;;;;;19.38;12.55;;;;;;;;;;5073628;28;20023;-66
2023/08/06 02:38:57;;;;;;;19.13;13.50;;;;;;;;;;5072863;28;20053;-65
2023/08/06 02:41:22;;;;;;;20.23;14.15;;;;;;;;;;5072680;28;20025;-65
2023/08/06 02:43:47;;;;;;;19.60;13.52;;;;;;;;;;5073025;28;20032;-66
2023/08/06 02:46:12;;;;;;;22.73;14.98;;;;;;;;;;5076852;28;20502;-66
2023/08/06 02:48:38;;;;;;;19.48;13.32;;;;;;;;;;5073614;28;20381;-66
2023/08/06 02:51:03;;;;;;;19.03;14.33;;;;;;;;;;5072831;28;20032;-66
2023/08/06 02:53:28;;;;;;;20.98;14.50;;;;;;;;;;5071177;28;20032;-66
2023/08/06 02:55:54;;;;;;;22.38;15.55;;;;;;;;;;5072061;28;20094;-66
2023/08/06 02:58:22;;;;;;;24.27;15.60;;;;;;;;;;5072618;28;20471;-66
2023/08/06 03:00:58;;;;;;;22.27;15.93;;;;;;;;;;5073160;28;20017;-66
2023/08/06 03:03:24;;;;;;;22.33;15.60;;;;;;;;;;5071952;28;20024;-66
2023/08/06 03:05:53;;;;;;;23.57;16.07;;;;;;;;;;5072886;28;20074;-66
2023/08/06 03:08:22;;;;;;;23.40;15.97;;;;;;;;;;5072570;28;20070;-66
2023/08/06 03:10:47;;;;;;;26.23;17.47;;;;;;;;;;5072641;28;20034;-65
2023/08/06 03:13:12;;;;;;;28.70;17.10;;;;;;;;;;5079284;28;20013;-66
2023/08/06 03:15:37;;;;;;;29.77;18.33;;;;;;;;;;5071616;28;20064;-67
2023/08/06 03:18:03;;;;;;;28.43;19.13;;;;;;;;;;5072883;28;20020;-66
2023/08/06 03:20:28;;;;;;;27.23;16.65;;;;;;;;;;5071234;28;20387;-67
2023/08/06 03:22:53;;;;;;;26.98;18.15;;;;;;;;;;5072748;28;20021;-66
2023/08/06 03:25:18;;;;;;;29.80;19.10;;;;;;;;;;5075257;28;20019;-66
2023/08/06 03:27:44;;;;;;;30.93;19.53;;;;;;;;;;5071733;28;20081;-71
2023/08/06 03:30:09;;;;;;;37.17;20.30;;;;;;;;;;5072596;28;20032;-71
2023/08/06 03:32:34;;;;;;;37.93;21.10;;;;;;;;;;5071423;28;20036;-71
2023/08/06 03:34:59;;;;;;;38.83;21.03;;;;;;;;;;5071901;28;20509;-71
2023/08/06 03:37:25;;;;;;;35.37;20.10;;;;;;;;;;5072461;28;20028;-71
2023/08/06 03:39:50;;;;;;;40.00;21.60;;;;;;;;;;5070633;28;20036;-71
2023/08/06 03:42:15;;;;;;;38.40;21.43;;;;;;;;;;5072237;28;20024;-71
2023/08/06 03:44:40;;;;;;;41.13;21.33;;;;;;;;;;5070792;28;20024;-71
2023/08/06 03:47:06;;;;;;;45.13;22.37;;;;;;;;;;5072013;28;20033;-71
2023/08/06 03:49:31;;;;;;;41.67;22.13;;;;;;;;;;5072723;28;20020;-71
2023/08/06 03:51:56;;;;;;;45.57;23.70;;;;;;;;;;5071905;28;20020;-71
2023/08/06 03:54:22;;;;;;;43.40;21.83;;;;;;;;;;5070946;28;20361;-71
2023/08/06 03:56:47;;;;;;;40.30;20.43;;;;;;;;;;5071849;28;20582;-71
2023/08/06 03:59:12;;;;;;;43.00;21.30;;;;;;;;;;5071471;28;20017;-71
2023/08/06 04:01:37;;;;;;;38.67;21.10;;;;;;;;;;5071310;28;20102;-70
2023/08/06 04:04:03;;;;;;;40.40;21.17;;;;;;;;;;5070574;28;20048;-71
2023/08/06 04:06:28;;;;;;;44.60;21.70;;;;;;;;;;5071890;28;20107;-71
2023/08/06 04:08:53;;;;;;;42.37;21.77;;;;;;;;;;5071099;28;20024;-71
2023/08/06 04:11:19;;;;;;;38.53;20.77;;;;;;;;;;5071423;28;20476;-71
2023/08/06 04:13:44;;;;;;;36.47;19.97;;;;;;;;;;5070989;28;20078;-70
2023/08/06 04:16:09;;;;;;;38.40;19.80;;;;;;;;;;5072236;28;20016;-69
2023/08/06 04:18:34;;;;;;;35.63;19.10;;;;;;;;;;5071059;28;20024;-71
2023/08/06 04:21:01;;;;;;;35.83;18.83;;;;;;;;;;5068529;28;20044;-71
2023/08/06 04:23:26;;;;;;;36.57;19.33;;;;;;;;;;5068821;28;20447;-70
2023/08/06 04:25:51;;;;;;;35.47;19.10;;;;;;;;;;5070849;28;20025;-71
2023/08/06 04:28:17;;;;;;;35.83;19.23;;;;;;;;;;5070973;28;20099;-70
2023/08/06 04:30:42;;;;;;;36.13;19.13;;;;;;;;;;5071788;28;20019;-71
2023/08/06 04:33:07;;;;;;;31.83;17.47;;;;;;;;;;5071676;28;20100;-71
2023/08/06 04:35:32;;;;;;;34.00;18.07;;;;;;;;;;5071816;28;20024;-71
2023/08/06 04:37:57;;;;;;;33.17;17.97;;;;;;;;;;5070289;28;20434;-66
2023/08/06 04:40:23;;;;;;;29.87;16.97;;;;;;;;;;5070558;28;20028;-66
2023/08/06 04:42:48;;;;;;;33.00;17.40;;;;;;;;;;5071072;28;20090;-68
2023/08/06 04:45:13;;;;;;;35.60;18.10;;;;;;;;;;5072647;28;20024;-67
2023/08/06 04:47:39;;;;;;;36.63;18.07;;;;;;;;;;5070517;28;20089;-66
2023/08/06 04:50:04;;;;;;;35.57;18.07;;;;;;;;;;5075015;28;20052;-66
2023/08/06 04:52:32;;;;;;;36.07;18.07;;;;;;;;;;5075322;28;20020;-66
2023/08/06 04:54:57;;;;;;;34.27;17.03;;;;;;;;;;5081255;28;20487;-66
2023/08/06 04:57:22;;;;;;;34.97;17.50;;;;;;;;;;5075277;28;20025;-66
2023/08/06 04:59:47;;;;;;;32.95;17.08;;;;;;;;;;5072800;28;20025;-67
2023/08/06 05:02:13;;;;;;;39.70;18.00;;;;;;;;;;5075488;28;20036;-66
2023/08/06 05:04:38;;;;;;;33.33;17.70;;;;;;;;;;5074554;28;20072;-67
2023/08/06 05:07:05;;;;;;;34.65;17.67;;;;;;;;;;5074188;28;20051;-66
2023/08/06 05:09:30;;;;;;;46.60;16.80;;;;;;;;;;5075126;28;20468;-66
2023/08/06 05:11:56;;;;;;;32.88;15.88;;;;;;;;;;5075388;28;20052;-66
2023/08/06 05:14:21;;;;;;;31.73;15.57;;;;;;;;;;5066180;28;20362;-66
2023/08/06 05:16:46;;;;;;;27.05;13.93;;;;;;;;;;5076634;28;20417;-70
2023/08/06 05:19:11;;;;;;;35.20;16.53;;;;;;;;;;5073877;28;20028;-70
2023/08/06 05:21:37;;;;;;;33.00;16.20;;;;;;;;;;5078522;28;20025;-70
2023/08/06 05:24:02;;;;;;;32.00;15.65;;;;;;;;;;5076529;28;20016;-70
2023/08/06 05:26:27;;;;;;;27.42;15.32;;;;;;;;;;5074390;28;20028;-70
2023/08/06 05:28:53;;;;;;;25.20;14.57;;;;;;;;;;5074366;28;20082;-71
2023/08/06 05:31:18;;;;;;;27.55;14.88;;;;;;;;;;5074931;28;20524;-70
2023/08/06 05:33:43;;;;;;;21.40;12.25;;;;;;;;;;5074394;28;20020;-71
2023/08/06 05:36:08;;;;;;;22.40;13.30;;;;;;;;;;5071062;28;20088;-70
2023/08/06 05:38:33;;;;;;;21.33;13.20;;;;;;;;;;5074002;28;20023;-70
2023/08/06 05:40:59;;;;;;;19.80;12.20;;;;;;;;;;5072251;28;20490;-71
2023/08/06 05:43:24;;;;;;;18.95;12.18;;;;;;;;;;5074692;28;20028;-70
2023/08/06 05:45:50;;;;;;;17.67;11.73;;;;;;;;;;5073155;28;20134;-70
2023/08/06 05:48:15;;;;;;;16.27;10.43;;;;;;;;;;5073440;28;20461;-66
2023/08/06 05:50:40;;;;;;;18.83;11.45;;;;;;;;;;5074071;28;20028;-66
2023/08/06 05:53:05;;;;;;;20.92;13.75;;;;;;;;;;5073411;28;20036;-67
2023/08/06 05:55:32;;;;;;;20.20;13.70;;;;;;;;;;5074056;28;20482;-65
2023/08/06 05:57:57;;;;;;;20.70;13.38;;;;;;;;;;5072499;28;20419;-66
2023/08/06 06:00:22;;;;;;;24.90;13.63;;;;;;;;;;5072712;28;20024;-65
2023/08/06 06:02:48;;;;;;;21.65;12.70;;;;;;;;;;5073146;28;20032;-67
2023/08/06 06:05:13;;;;;;;19.17;12.63;;;;;;;;;;5073545;28;20052;-65
2023/08/06 06:07:38;;;;;;;18.65;11.43;;;;;;;;;;5074253;28;20107;-66
2023/08/06 06:10:04;;;;;;;17.48;12.30;;;;;;;;;;5072148;28;20111;-65
2023/08/06 06:12:29;;;;;;;20.95;12.65;;;;;;;;;;5073473;28;20020;-65
2023/08/06 06:14:54;;;;;;;19.17;12.35;;;;;;;;;;5073594;28;20130;-68
2023/08/06 06:17:20;;;;;;;18.30;11.45;;;;;;;;;;5073517;28;20372;-67
2023/08/06 06:19:45;;;;;;;18.00;11.98;;;;;;;;;;5073301;28;20021;-68
2023/08/06 06:22:10;;;;;;;15.85;11.02;;;;;;;;;;5073501;28;20020;-67
2023/08/06 06:24:35;;;;;;;17.50;11.05;;;;;;;;;;5071075;28;20031;-67
2023/08/06 06:27:01;;;;;;;18.83;10.98;;;;;;;;;;5072822;28;20150;-67
2023/08/06 06:29:26;;;;;;;18.38;10.93;;;;;;;;;;5074907;28;20028;-67
2023/08/06 06:31:51;;;;;;;14.70;10.02;;;;;;;;;;5071838;28;20115;-66
2023/08/06 06:34:16;;;;;;;16.73;10.80;;;;;;;;;;5074989;28;20097;-67
2023/08/06 06:36:42;;;;;;;15.65;10.27;;;;;;;;;;5074603;28;20016;-67
2023/08/06 06:39:08;;;;;;;17.25;10.65;;;;;;;;;;5074974;28;20109;-67
2023/08/06 06:41:33;;;;;;;17.33;10.07;;;;;;;;;;5071708;28;20052;-67
2023/08/06 06:43:58;;;;;;;14.40;9.48;;;;;;;;;;5073819;28;20071;-67
2023/08/06 06:46:24;;;;;;;12.63;8.35;;;;;;;;;;5074550;28;20028;-67
2023/08/06 06:48:49;;;;;;;12.20;8.30;;;;;;;;;;5085817;28;20535;-68
2023/08/06 06:51:14;;;;;;;13.25;8.73;;;;;;;;;;5077308;28;20028;-65
2023/08/06 06:53:40;;;;;;;13.48;9.57;;;;;;;;;;5074488;28;20095;-65
2023/08/06 06:56:05;;;;;;;12.65;8.30;;;;;;;;;;5070236;28;20039;-68
2023/08/06 06:58:31;;;;;;;13.90;8.90;;;;;;;;;;5073743;28;20023;-69
2023/08/06 07:00:56;;;;;;;13.38;8.95;;;;;;;;;;5073369;28;20024;-70
2023/08/06 07:03:22;;;;;;;14.60;9.73;;;;;;;;;;5073820;28;20024;-70
2023/08/06 07:05:47;;;;;;;12.90;8.93;;;;;;;;;;5074393;28;20047;-70
2023/08/06 07:08:12;;;;;;;13.27;8.27;;;;;;;;;;5070270;28;20040;-70
2023/08/06 07:10:38;;;;;;;11.20;7.80;;;;;;;;;;5071473;28;20032;-69
2023/08/06 07:13:03;;;;;;;11.05;8.00;;;;;;;;;;5073260;28;20077;-70
2023/08/06 07:15:29;;;;;;;10.63;7.35;;;;;;;;;;5074185;28;20016;-71
2023/08/06 07:17:54;;;;;;;12.50;7.80;;;;;;;;;;5074183;28;20020;-70
2023/08/06 07:20:19;;;;;;;13.50;7.93;;;;;;;;;;5067470;28;20550;-69
2023/08/06 07:22:45;;;;;;;10.57;7.70;;;;;;;;;;5078356;28;20017;-71
2023/08/06 07:25:10;;;;;;;10.88;6.78;;;;;;;;;;5070164;28;20054;-70
2023/08/06 07:27:36;;;;;;;8.68;6.15;;;;;;;;;;5076233;28;20034;-71
2023/08/06 07:30:01;;;;;;;10.55;6.65;;;;;;;;;;5069321;28;20495;-70
2023/08/06 07:32:27;;;;;;;10.55;6.07;;;;;;;;;;5068876;28;20507;-71
2023/08/06 07:34:56;;;;;;;6.88;4.97;;;;;;;;;;5071620;28;20024;-70
2023/08/06 07:37:22;;;;;;;7.22;5.05;;;;;;;;;;5073889;28;20020;-71
2023/08/06 07:39:47;;;;;;;7.80;4.63;;;;;;;;;;5073935;28;20040;-71
2023/08/06 07:42:13;;;;;;;8.00;4.28;;;;;;;;;;5073950;28;20016;-71
2023/08/06 07:44:38;;;;;;;7.20;4.70;;;;;;;;;;5073818;28;20491;-70
2023/08/06 07:47:04;;;;;;;7.47;5.00;;;;;;;;;;5073374;28;20091;-71
2023/08/06 07:49:29;;;;;;;8.07;4.60;;;;;;;;;;5073516;28;20029;-71
2023/08/06 07:51:54;;;;;;;6.93;5.05;;;;;;;;;;5073623;28;20021;-70
2023/08/06 07:54:20;;;;;;;8.63;5.18;;;;;;;;;;5073411;28;20065;-71
2023/08/06 07:56:45;;;;;;;8.63;4.63;;;;;;;;;;5073118;28;20098;-70
2023/08/06 07:59:10;;;;;;;6.00;4.38;;;;;;;;;;5073310;28;20179;-71
2023/08/06 08:01:35;;;;;;;8.38;4.82;;;;;;;;;;5073629;28;20016;-71
2023/08/06 08:04:01;;;;;;;8.30;4.70;;;;;;;;;;5073154;28;20071;-70
2023/08/06 08:06:26;;;;;;;7.28;4.65;;;;;;;;;;5073364;28;20027;-68
2023/08/06 08:08:51;;;;;;;6.43;4.40;;;;;;;;;;5073317;28;20130;-71
2023/08/06 08:11:17;;;;;;;7.93;4.15;;;;;;;;;;5073230;28;20074;-71
2023/08/06 08:13:42;;;;;;;5.80;4.30;;;;;;;;;;5073445;28;20031;-70
2023/08/06 08:16:08;;;;;;;6.00;3.67;;;;;;;;;;5073100;28;20107;-71
2023/08/06 08:18:33;;;;;;;6.05;3.67;;;;;;;;;;5073301;28;20383;-71
2023/08/06 08:20:58;;;;;;;5.13;3.63;;;;;;;;;;5072858;28;20016;-71
2023/08/06 08:23:23;;;;;;;6.03;3.55;;;;;;;;;;5073027;28;20024;-70
2023/08/06 08:25:49;;;;;;;7.15;2.95;;;;;;;;;;5072957;28;20077;-70
2023/08/06 08:28:14;;;;;;;4.60;2.95;;;;;;;;;;5073272;28;20097;-71
2023/08/06 08:30:40;;;;;;;5.25;3.10;;;;;;;;;;5073194;28;20028;-71
2023/08/06 08:33:05;;;;;;;6.50;3.08;;;;;;;;;;5073171;28;20021;-71
2023/08/06 08:35:31;;;;;;;6.45;3.65;;;;;;;;;;5073388;28;20057;-71
2023/08/06 08:37:56;;;;;;;6.45;3.60;;;;;;;;;;5073422;28;20020;-70
2023/08/06 08:40:23;;;;;;;6.70;3.78;;;;;;;;;;5073041;28;20024;-71
2023/08/06 08:42:48;;;;;;;5.20;3.38;;;;;;;;;;5080470;28;20031;-70
2023/08/06 08:45:14;;;;;;;5.30;3.20;;;;;;;;;;5093643;28;20082;-71
2023/08/06 08:47:43;;;;;;;8.15;2.72;;;;;;;;;;5093541;28;20039;-71
2023/08/06 08:50:09;;;;;;;5.15;2.55;;;;;;;;;;5093552;28;20501;-71
2023/08/06 08:52:35;;;;;;;4.30;2.22;;;;;;;;;;5093594;28;20093;-71
2023/08/06 08:55:01;;;;;;;4.35;2.50;;;;;;;;;;5074690;28;20024;-71
2023/08/06 08:57:26;;;;;;;4.45;2.70;;;;;;;;;;5073340;28;20077;-70
2023/08/06 08:59:51;;;;;;;4.75;2.95;;;;;;;;;;5073241;28;20372;-70
2023/08/06 09:02:17;;;;;;;6.18;2.80;;;;;;;;;;5073109;28;20472;-71
2023/08/06 09:04:44;;;;;;;4.40;2.42;;;;;;;;;;5073162;28;20524;-71
2023/08/06 09:07:10;;;;;;;5.25;2.40;;;;;;;;;;5073098;28;20480;-71
2023/08/06 09:09:37;;;;;;;4.78;2.70;;;;;;;;;;5072860;28;20031;-71
2023/08/06 09:12:07;;;;;;;4.15;2.53;;;;;;;;;;5073151;28;20460;-71
2023/08/06 09:14:32;;;;;;;8.13;2.40;;;;;;;;;;5073045;28;20020;-71
2023/08/06 09:16:58;;;;;;;4.28;2.60;;;;;;;;;;5073221;28;20032;-69
2023/08/06 09:19:23;;;;;;;4.93;2.30;;;;;;;;;;5081353;28;20018;-70
2023/08/06 09:21:50;;;;;;;4.20;2.22;;;;;;;;;;5093338;28;20078;-70
2023/08/06 09:24:16;;;;;;;3.53;2.03;;;;;;;;;;5093002;28;20054;-70
2023/08/06 09:26:42;;;;;;;4.90;2.10;;;;;;;;;;5078406;28;20029;-70
2023/08/06 09:29:08;;;;;;;3.58;2.00;;;;;;;;;;5072301;28;20063;-70
2023/08/06 09:31:39;;;;;;;6.22;2.20;;;;;;;;;;5091721;28;20060;-70
2023/08/06 09:34:10;;;;;;;4.28;2.50;;;;;;;;;;5094305;28;20020;-70
2023/08/06 09:36:39;;;;;;;5.03;2.13;;;;;;;;;;5096640;28;20102;-70
2023/08/06 09:39:12;;;;;;;4.68;2.60;;;;;;;;;;5098606;28;20016;-70
2023/08/06 09:41:37;;;;;;;6.45;2.13;;;;;;;;;;5098898;28;20027;-70
2023/08/06 09:44:02;;;;;;;4.25;2.00;;;;;;;;;;5098811;28;20016;-70
2023/08/06 09:46:28;;;;;;;3.90;1.98;;;;;;;;;;5098465;28;20024;-71
2023/08/06 09:48:53;;;;;;;3.75;1.90;;;;;;;;;;5079951;28;20039;-71
2023/08/06 09:51:18;;;;;;;4.45;1.75;;;;;;;;;;5077935;28;20069;-71
2023/08/06 09:53:44;;;;;;;4.47;1.90;;;;;;;;;;5078165;28;20365;-71
2023/08/06 09:56:10;;;;;;;5.53;1.95;;;;;;;;;;5078872;28;20502;-71
2023/08/06 09:58:36;;;;;;;4.05;1.90;;;;;;;;;;5077593;28;20016;-71
2023/08/06 10:01:02;;;;;;;4.72;1.60;;;;;;;;;;5077905;28;20021;-71
2023/08/06 10:03:28;;;;;;;3.17;1.63;;;;;;;;;;5077116;28;20057;-71
2023/08/06 10:05:55;;;;;;;9.20;2.25;;;;;;;;;;5079702;28;20031;-71
2023/08/06 10:08:20;;;;;;;4.32;1.70;;;;;;;;;;5081882;28;20027;-72
2023/08/06 10:10:45;;;;;;;6.13;1.75;;;;;;;;;;5097561;28;20025;-71
2023/08/06 10:13:12;;;;;;;4.30;1.70;;;;;;;;;;5098046;28;20022;-71
2023/08/06 10:15:38;;;;;;;3.17;1.90;;;;;;;;;;5098476;28;20013;-71
2023/08/06 10:18:04;;;;;;;4.82;2.28;;;;;;;;;;5098424;28;20009;-71
2023/08/06 10:20:34;;;;;;;3.17;2.03;;;;;;;;;;5098385;28;20028;-71
2023/08/06 10:23:00;;;;;;;6.10;2.55;;;;;;;;;;5099092;28;20025;-71
2023/08/06 10:25:25;;;;;;;3.70;2.00;;;;;;;;;;5098402;28;20031;-70
2023/08/06 10:27:54;;;;;;;5.35;1.92;;;;;;;;;;5085431;28;20017;-67
2023/08/06 10:30:27;;;;;;;3.20;1.60;;;;;;;;;;5075712;28;20456;-65
2023/08/06 10:32:53;;;;;;;4.22;1.60;;;;;;;;;;5076221;28;20095;-66
2023/08/06 10:35:34;;;;;;;3.35;1.63;;;;;;;;;;5075848;28;20429;-66
2023/08/06 10:38:02;;;;;;;2.85;1.50;;;;;;;;;;5076544;28;20379;-66
2023/08/06 10:40:29;;;;;;;3.38;1.77;;;;;;;;;;5075851;28;20021;-65
2023/08/06 10:42:54;;;;;;;3.22;1.70;;;;;;;;;;5075254;28;20021;-66
2023/08/06 10:45:20;;;;;;;5.75;1.70;;;;;;;;;;5097885;28;20119;-67
2023/08/06 10:47:46;;;;;;;4.35;1.52;;;;;;;;;;5099055;28;20021;-67
2023/08/06 10:50:13;;;;;;;3.85;1.40;;;;;;;;;;5100310;28;20003;-70
2023/08/06 10:52:38;;;;;;;2.65;1.17;;;;;;;;;;5098264;28;20032;-67
2023/08/06 10:55:04;;;;;;;6.30;1.50;;;;;;;;;;5099401;28;20020;-66
2023/08/06 10:57:29;;;;;;;4.05;1.40;;;;;;;;;;5098437;28;20028;-70
2023/08/06 10:59:54;;;;;;;3.53;1.33;;;;;;;;;;5099218;28;20047;-66
2023/08/06 11:02:20;;;;;;;3.08;1.45;;;;;;;;;;5095295;28;20040;-63
2023/08/06 11:04:45;;;;;;;3.05;1.30;;;;;;;;;;5082728;28;20036;-63
2023/08/06 11:07:10;;;;;;;5.03;1.60;;;;;;;;;;5078643;28;20020;-64
2023/08/06 11:09:35;;;;;;;5.55;1.58;;;;;;;;;;5099574;28;20084;-66
2023/08/06 11:12:01;;;;;;;4.47;1.45;;;;;;;;;;5094616;28;20016;-69
2023/08/06 11:14:26;;;;;;;4.97;1.50;;;;;;;;;;5103537;28;20016;-66
2023/08/06 11:16:51;;;;;;;3.17;1.50;;;;;;;;;;5099427;28;20013;-67
2023/08/06 11:19:16;;;;;;;3.55;1.20;;;;;;;;;;5096760;28;20009;-67
2023/08/06 11:21:43;;;;;;;4.07;1.40;;;;;;;;;;5081784;28;20029;-63
2023/08/06 11:24:10;;;;;;;2.72;1.40;;;;;;;;;;5076064;28;20356;-63
2023/08/06 11:26:36;;;;;;;4.03;1.40;;;;;;;;;;5075533;28;20472;-63
2023/08/06 11:29:02;;;;;;;3.13;1.40;;;;;;;;;;5073927;28;20020;-64
2023/08/06 11:31:27;;;;;;;4.20;1.42;;;;;;;;;;5073760;28;20016;-63
2023/08/06 11:33:53;;;;;;;3.42;1.42;;;;;;;;;;5073581;28;20423;-64
2023/08/06 11:36:28;;;;;;;4.80;1.40;;;;;;;;;;5073379;28;20021;-64
2023/08/06 11:38:54;;;;;;;4.07;1.60;;;;;;;;;;5075134;28;20052;-70
2023/08/06 11:41:19;;;;;;;2.65;1.20;;;;;;;;;;5076444;28;20487;-71
2023/08/06 11:43:45;;;;;;;3.58;1.60;;;;;;;;;;5079615;28;20001;-71
2023/08/06 11:46:11;;;;;;;3.47;1.90;;;;;;;;;;5098110;28;20012;-70
2023/08/06 11:48:50;;;;;;;3.58;1.73;;;;;;;;;;5098548;28;20088;-71
2023/08/06 11:51:15;;;;;;;3.67;1.60;;;;;;;;;;5098379;28;20047;-71
2023/08/06 11:53:41;;;;;;;7.13;1.70;;;;;;;;;;5098081;28;20009;-70
2023/08/06 11:56:06;;;;;;;3.70;1.63;;;;;;;;;;5098012;28;20028;-70
2023/08/06 11:58:31;;;;;;;3.92;1.60;;;;;;;;;;5098388;28;20025;-70
2023/08/06 12:00:58;;;;;;;3.30;1.80;;;;;;;;;;5098837;28;20009;-70
2023/08/06 12:03:27;;;;;;;4.20;1.80;;;;;;;;;;5098458;28;20073;-69
2023/08/06 12:05:53;;;;;;;4.82;1.85;;;;;;;;;;5097834;28;20005;-70
2023/08/06 12:08:19;;;;;;;4.25;1.70;;;;;;;;;;5098630;28;20024;-70
2023/08/06 12:10:44;;;;;;;3.95;1.70;;;;;;;;;;5098587;28;20033;-70
2023/08/06 12:13:09;;;;;;;4.97;2.03;;;;;;;;;;5097965;28;20024;-70
2023/08/06 12:15:34;;;;;;;5.15;2.30;;;;;;;;;;5097865;28;20024;-70
2023/08/06 12:18:00;;;;;;;4.22;2.20;;;;;;;;;;5097511;28;20445;-70
2023/08/06 12:20:25;;;;;;;4.45;2.60;;;;;;;;;;5097642;28;20047;-70
2023/08/06 12:22:51;;;;;;;4.05;2.42;;;;;;;;;;5098782;28;20031;-70
2023/08/06 12:25:17;;;;;;;4.95;2.80;;;;;;;;;;5098797;28;20023;-70
2023/08/06 12:27:43;;;;;;;5.80;3.20;;;;;;;;;;5098628;28;20020;-70
2023/08/06 12:30:09;;;;;;;4.72;2.80;;;;;;;;;;5098832;28;20040;-72
2023/08/06 12:32:34;;;;;;;5.72;3.10;;;;;;;;;;5098560;28;20008;-70
2023/08/06 12:35:00;;;;;;;5.18;3.13;;;;;;;;;;5098491;28;20069;-70
2023/08/06 12:37:26;;;;;;;5.32;3.65;;;;;;;;;;5098755;28;20004;-70
2023/08/06 12:39:51;;;;;;;6.63;4.07;;;;;;;;;;5098386;28;20035;-70
2023/08/06 12:42:16;;;;;;;5.80;3.78;;;;;;;;;;5098094;28;20015;-70
2023/08/06 12:44:41;;;;;;;5.43;3.60;;;;;;;;;;5115242;28;20028;-70
2023/08/06 12:47:07;;;;;;;4.53;2.97;;;;;;;;;;5117880;28;20031;-70
2023/08/06 12:49:33;;;;;;;4.70;2.90;;;;;;;;;;5117877;28;20009;-71
2023/08/06 12:51:59;;;;;;;6.70;2.97;;;;;;;;;;5104035;28;20005;-69
2023/08/06 12:54:25;;;;;;;5.28;2.80;;;;;;;;;;5075810;28;20060;-71
2023/08/06 12:56:50;;;;;;;4.40;2.45;;;;;;;;;;5086598;28;20001;-71
2023/08/06 12:59:17;;;;;;;4.90;2.85;;;;;;;;;;5093800;28;20017;-69
2023/08/06 13:01:42;;;;;;;5.05;2.70;;;;;;;;;;5096863;28;20012;-70
2023/08/06 13:04:08;;;;;;;5.05;2.72;;;;;;;;;;5096408;28;20119;-71
2023/08/06 13:06:36;;;;;;;4.10;2.35;;;;;;;;;;5076538;28;20013;-69
2023/08/06 13:09:11;;;;;;;6.47;1.85;;;;;;;;;;5092872;28;20016;-71
2023/08/06 13:11:37;;;;;;;3.38;1.80;;;;;;;;;;5080204;28;20021;-71
2023/08/06 13:14:07;;;;;;;3.72;1.77;;;;;;;;;;5092684;28;20024;-71
2023/08/06 13:16:36;;;;;;;4.68;1.60;;;;;;;;;;5097492;28;20015;-71
2023/08/06 13:19:01;;;;;;;3.67;1.58;;;;;;;;;;5092118;28;20107;-70
2023/08/06 13:21:31;;;;;;;3.67;1.33;;;;;;;;;;5079386;28;20036;-71
2023/08/06 13:23:57;;;;;;;3.38;1.40;;;;;;;;;;5080425;28;20021;-71
2023/08/06 13:26:22;;;;;;;5.20;1.50;;;;;;;;;;5081141;28;20031;-71
2023/08/06 13:28:49;;;;;;;3.55;1.60;;;;;;;;;;5081249;28;20036;-71
2023/08/06 13:31:14;;;;;;;3.30;1.20;;;;;;;;;;5081220;28;20005;-71
2023/08/06 13:33:39;;;;;;;2.50;1.27;;;;;;;;;;5095470;28;20028;-71
2023/08/06 13:36:04;;;;;;;2.65;1.13;;;;;;;;;;5088671;28;20042;-72
2023/08/06 13:38:30;;;;;;;3.67;1.13;;;;;;;;;;5084544;28;20036;-71
2023/08/06 13:40:55;;;;;;;1.90;1.00;;;;;;;;;;5084503;28;20013;-71
2023/08/06 13:43:20;;;;;;;2.80;1.20;;;;;;;;;;5092223;28;20043;-72
2023/08/06 13:45:45;;;;;;;2.72;1.20;;;;;;;;;;5078691;28;20035;-72
2023/08/06 13:48:11;;;;;;;3.08;1.08;;;;;;;;;;5088248;28;20036;-73
2023/08/06 13:50:37;;;;;;;3.22;1.20;;;;;;;;;;5094772;28;20020;-72
2023/08/06 13:53:02;;;;;;;3.90;1.40;;;;;;;;;;5084718;28;20025;-70
2023/08/06 13:55:27;;;;;;;2.92;1.30;;;;;;;;;;5086557;28;20035;-72
2023/08/06 13:57:52;;;;;;;3.78;1.17;;;;;;;;;;5066888;28;20489;-72
2023/08/06 14:00:18;;;;;;;2.75;1.20;;;;;;;;;;5073124;28;20018;-71
2023/08/06 14:02:46;;;;;;;4.90;1.30;;;;;;;;;;5074864;28;20012;-72
2023/08/06 14:05:11;;;;;;;3.38;1.20;;;;;;;;;;5089363;28;20487;-71
2023/08/06 14:07:36;;;;;;;2.85;1.23;;;;;;;;;;5094446;28;20061;-70
2023/08/06 14:10:01;;;;;;;2.95;1.15;;;;;;;;;;5100523;28;20357;-72
2023/08/06 14:12:27;;;;;;;3.78;1.30;;;;;;;;;;5081200;28;20396;-72
2023/08/06 14:14:52;;;;;;;2.88;1.20;;;;;;;;;;5086353;28;20035;-73
2023/08/06 14:17:17;;;;;;;2.35;1.10;;;;;;;;;;5075425;28;20479;-73
2023/08/06 14:19:43;;;;;;;3.90;1.30;;;;;;;;;;5080379;28;20074;-73
2023/08/06 14:22:08;;;;;;;2.47;1.15;;;;;;;;;;5077989;28;20051;-73
2023/08/06 14:24:33;;;;;;;2.55;1.20;;;;;;;;;;5071793;28;20076;-73